sensor_id;sensor_type;location;lat;lon;timestamp;pressure;altitude;pressure_sealevel;temperature;humidity
6942;BME280;3510;43.200;27.920;2023-05-14T00:01:43;101827.84;;;18.20;50.47
6942;BME280;3510;43.200;27.920;2023-05-14T00:04:12;101782.75;;;17.82;50.85
6942;BME280;3510;43.200;27.920;2023-05-14T00:06:40;101821.59;;;17.56;52.10
6942;BME280;3510;43.200;27.920;2023-05-14T00:09:21;101821.28;;;17.86;51.42
6942;BME280;3510;43.200;27.920;2023-05-14T00:11:48;101823.25;;;17.44;52.38
6942;BME280;3510;43.200;27.920;2023-05-14T00:14:14;101793.59;;;17.44;51.86
6942;BME280;3510;43.200;27.920;2023-05-14T00:16:41;101724.13;;;17.10;51.89
6942;BME280;3510;43.200;27.920;2023-05-14T00:19:08;101786.28;;;17.60;51.68
6942;BME280;3510;43.200;27.920;2023-05-14T00:21:46;101839.34;;;17.78;51.62
6942;BME280;3510;43.200;27.920;2023-05-14T00:24:13;101817.06;;;17.63;51.75
6942;BME280;3510;43.200;27.920;2023-05-14T00:26:40;101824.69;;;17.63;51.68
6942;BME280;3510;43.200;27.920;2023-05-14T00:29:07;101812.84;;;17.29;52.39
6942;BME280;3510;43.200;27.920;2023-05-14T00:31:34;101823.69;;;17.50;52.03
6942;BME280;3510;43.200;27.920;2023-05-14T00:34:00;101837.19;;;17.60;52.17
6942;BME280;3510;43.200;27.920;2023-05-14T00:36:27;101833.34;;;17.65;51.46
6942;BME280;3510;43.200;27.920;2023-05-14T00:38:56;101846.19;;;17.79;51.08
6942;BME280;3510;43.200;27.920;2023-05-14T00:41:23;101731.22;;;17.26;50.10
6942;BME280;3510;43.200;27.920;2023-05-14T00:43:50;101827.88;;;18.08;49.20
6942;BME280;3510;43.200;27.920;2023-05-14T00:46:16;101850.59;;;17.70;50.05
6942;BME280;3510;43.200;27.920;2023-05-14T00:48:44;101845.50;;;17.58;50.59
6942;BME280;3510;43.200;27.920;2023-05-14T00:51:11;101833.13;;;17.51;51.14
6942;BME280;3510;43.200;27.920;2023-05-14T00:53:38;101778.13;;;17.29;50.79
6942;BME280;3510;43.200;27.920;2023-05-14T00:56:07;101830.00;;;17.43;51.53
6942;BME280;3510;43.200;27.920;2023-05-14T00:58:34;101833.00;;;17.96;50.22
6942;BME280;3510;43.200;27.920;2023-05-14T01:01:01;101840.28;;;17.56;51.41
6942;BME280;3510;43.200;27.920;2023-05-14T01:03:29;101757.84;;;16.62;52.82
6942;BME280;3510;43.200;27.920;2023-05-14T01:06:04;101846.47;;;17.25;52.62
6942;BME280;3510;43.200;27.920;2023-05-14T01:08:40;101782.25;;;16.93;52.62
6942;BME280;3510;43.200;27.920;2023-05-14T01:11:12;101841.31;;;17.58;51.85
6942;BME280;3510;43.200;27.920;2023-05-14T01:13:48;101837.41;;;17.40;52.50
6942;BME280;3510;43.200;27.920;2023-05-14T01:16:18;101833.44;;;17.44;52.44
6942;BME280;3510;43.200;27.920;2023-05-14T01:18:45;101834.75;;;17.97;51.00
6942;BME280;3510;43.200;27.920;2023-05-14T01:24:12;101802.47;;;17.84;50.65
6942;BME280;3510;43.200;27.920;2023-05-14T01:26:39;101821.50;;;17.78;50.79
6942;BME280;3510;43.200;27.920;2023-05-14T01:29:12;101811.41;;;17.79;50.75
6942;BME280;3510;43.200;27.920;2023-05-14T01:31:43;101807.53;;;17.61;50.83
6942;BME280;3510;43.200;27.920;2023-05-14T01:34:12;101804.59;;;16.98;52.55
6942;BME280;3510;43.200;27.920;2023-05-14T01:36:40;101826.22;;;17.38;51.63
6942;BME280;3510;43.200;27.920;2023-05-14T01:39:07;101821.84;;;17.02;52.48
6942;BME280;3510;43.200;27.920;2023-05-14T01:41:37;101823.91;;;17.17;52.70
6942;BME280;3510;43.200;27.920;2023-05-14T01:44:04;101828.44;;;17.69;51.55
6942;BME280;3510;43.200;27.920;2023-05-14T01:46:31;101808.22;;;17.82;50.82
6942;BME280;3510;43.200;27.920;2023-05-14T01:48:58;101802.66;;;17.64;50.54
6942;BME280;3510;43.200;27.920;2023-05-14T01:51:59;101792.47;;;17.99;49.68
6942;BME280;3510;43.200;27.920;2023-05-14T01:54:26;101830.00;;;18.50;48.75
6942;BME280;3510;43.200;27.920;2023-05-14T01:56:53;101820.34;;;18.09;49.40
6942;BME280;3510;43.200;27.920;2023-05-14T01:59:20;101820.16;;;18.43;48.81
6942;BME280;3510;43.200;27.920;2023-05-14T02:01:48;101824.94;;;18.63;48.50
6942;BME280;3510;43.200;27.920;2023-05-14T02:04:14;101822.34;;;18.75;48.05
6942;BME280;3510;43.200;27.920;2023-05-14T02:06:41;101793.66;;;18.41;48.80
6942;BME280;3510;43.200;27.920;2023-05-14T02:09:09;101833.50;;;18.52;49.29
6942;BME280;3510;43.200;27.920;2023-05-14T02:11:36;101830.75;;;18.12;49.95
6942;BME280;3510;43.200;27.920;2023-05-14T02:14:02;101821.88;;;18.19;50.23
6942;BME280;3510;43.200;27.920;2023-05-14T02:16:29;101754.66;;;17.22;51.55
6942;BME280;3510;43.200;27.920;2023-05-14T02:18:56;101762.38;;;16.88;52.68
6942;BME280;3510;43.200;27.920;2023-05-14T02:21:23;101813.44;;;16.91;53.77
6942;BME280;3510;43.200;27.920;2023-05-14T02:23:50;101837.59;;;17.31;52.93
6942;BME280;3510;43.200;27.920;2023-05-14T02:26:18;101814.13;;;17.12;53.32
6942;BME280;3510;43.200;27.920;2023-05-14T02:28:45;101814.94;;;16.77;54.45
6942;BME280;3510;43.200;27.920;2023-05-14T02:31:12;101793.06;;;16.79;53.73
6942;BME280;3510;43.200;27.920;2023-05-14T02:33:39;101808.72;;;17.19;52.90
6942;BME280;3510;43.200;27.920;2023-05-14T02:36:06;101828.44;;;17.22;53.15
6942;BME280;3510;43.200;27.920;2023-05-14T02:38:33;101829.88;;;17.53;52.27
6942;BME280;3510;43.200;27.920;2023-05-14T02:41:00;101838.06;;;17.61;51.50
6942;BME280;3510;43.200;27.920;2023-05-14T02:43:28;101829.16;;;17.09;52.35
6942;BME280;3510;43.200;27.920;2023-05-14T02:45:55;101808.63;;;17.06;51.76
6942;BME280;3510;43.200;27.920;2023-05-14T02:48:21;101835.44;;;17.36;51.05
6942;BME280;3510;43.200;27.920;2023-05-14T02:50:49;101848.81;;;17.33;51.13
6942;BME280;3510;43.200;27.920;2023-05-14T02:53:16;101846.91;;;17.42;50.80
6942;BME280;3510;43.200;27.920;2023-05-14T02:55:43;101844.50;;;17.67;50.02
6942;BME280;3510;43.200;27.920;2023-05-14T02:58:10;101846.63;;;17.73;49.29
6942;BME280;3510;43.200;27.920;2023-05-14T03:00:38;101838.53;;;17.90;49.38
6942;BME280;3510;43.200;27.920;2023-05-14T03:03:10;101751.06;;;17.90;47.98
6942;BME280;3510;43.200;27.920;2023-05-14T03:05:36;101810.75;;;18.30;47.87
6942;BME280;3510;43.200;27.920;2023-05-14T03:08:03;101841.41;;;18.69;47.57
6942;BME280;3510;43.200;27.920;2023-05-14T03:10:30;101844.53;;;18.76;47.82
6942;BME280;3510;43.200;27.920;2023-05-14T03:12:57;101848.38;;;18.46;48.28
6942;BME280;3510;43.200;27.920;2023-05-14T03:15:24;101865.66;;;18.02;49.25
6942;BME280;3510;43.200;27.920;2023-05-14T03:17:52;101840.09;;;17.65;50.20
6942;BME280;3510;43.200;27.920;2023-05-14T03:20:19;101869.78;;;17.76;50.26
6942;BME280;3510;43.200;27.920;2023-05-14T03:22:46;101858.81;;;17.65;51.07
6942;BME280;3510;43.200;27.920;2023-05-14T03:25:13;101866.28;;;18.23;49.83
6942;BME280;3510;43.200;27.920;2023-05-14T03:27:39;101865.69;;;18.50;49.05
6942;BME280;3510;43.200;27.920;2023-05-14T03:30:07;101865.06;;;18.29;49.22
6942;BME280;3510;43.200;27.920;2023-05-14T03:32:36;101853.28;;;18.43;48.92
6942;BME280;3510;43.200;27.920;2023-05-14T03:35:05;101857.84;;;18.97;48.18
6942;BME280;3510;43.200;27.920;2023-05-14T03:37:32;101799.84;;;18.45;47.86
6942;BME280;3510;43.200;27.920;2023-05-14T03:39:59;101872.47;;;18.75;47.46
6942;BME280;3510;43.200;27.920;2023-05-14T03:42:25;101824.00;;;18.01;48.62
6942;BME280;3510;43.200;27.920;2023-05-14T03:44:52;101872.59;;;18.65;47.77
6942;BME280;3510;43.200;27.920;2023-05-14T03:47:19;101869.84;;;18.61;47.95
6942;BME280;3510;43.200;27.920;2023-05-14T03:49:46;101873.44;;;19.02;47.07
6942;BME280;3510;43.200;27.920;2023-05-14T03:52:14;101858.69;;;19.88;45.26
6942;BME280;3510;43.200;27.920;2023-05-14T03:54:41;101849.16;;;20.26;43.99
6942;BME280;3510;43.200;27.920;2023-05-14T03:57:07;101859.97;;;20.92;42.69
6942;BME280;3510;43.200;27.920;2023-05-14T03:59:34;101870.78;;;21.60;41.32
6942;BME280;3510;43.200;27.920;2023-05-14T04:02:00;101877.94;;;22.28;39.88
6942;BME280;3510;43.200;27.920;2023-05-14T04:04:27;101884.41;;;22.36;39.13
6942;BME280;3510;43.200;27.920;2023-05-14T04:06:53;101884.34;;;21.89;39.69
6942;BME280;3510;43.200;27.920;2023-05-14T04:09:21;101884.19;;;21.71;40.25
6942;BME280;3510;43.200;27.920;2023-05-14T04:11:48;101888.72;;;22.37;38.75
6942;BME280;3510;43.200;27.920;2023-05-14T04:14:15;101889.53;;;22.36;38.97
6942;BME280;3510;43.200;27.920;2023-05-14T04:16:41;101893.28;;;22.27;38.98
6942;BME280;3510;43.200;27.920;2023-05-14T04:19:08;101891.00;;;22.16;38.90
6942;BME280;3510;43.200;27.920;2023-05-14T04:21:34;101886.56;;;22.29;39.11
6942;BME280;3510;43.200;27.920;2023-05-14T04:24:03;101885.03;;;22.49;38.83
6942;BME280;3510;43.200;27.920;2023-05-14T04:26:31;101875.56;;;22.80;38.26
6942;BME280;3510;43.200;27.920;2023-05-14T04:28:58;101882.25;;;22.60;38.61
6942;BME280;3510;43.200;27.920;2023-05-14T04:31:27;101868.88;;;22.66;38.74
6942;BME280;3510;43.200;27.920;2023-05-14T04:33:53;101884.25;;;22.82;38.54
6942;BME280;3510;43.200;27.920;2023-05-14T04:36:20;101873.91;;;23.31;38.07
6942;BME280;3510;43.200;27.920;2023-05-14T04:38:46;101884.53;;;22.39;39.53
6942;BME280;3510;43.200;27.920;2023-05-14T04:41:12;101878.09;;;22.15;40.50
6942;BME280;3510;43.200;27.920;2023-05-14T04:43:40;101871.06;;;22.76;39.67
6942;BME280;3510;43.200;27.920;2023-05-14T04:46:07;101875.91;;;23.03;39.10
6942;BME280;3510;43.200;27.920;2023-05-14T04:48:35;101877.25;;;23.12;39.00
6942;BME280;3510;43.200;27.920;2023-05-14T04:51:02;101883.03;;;23.60;38.52
6942;BME280;3510;43.200;27.920;2023-05-14T04:53:28;101886.06;;;23.87;38.19
6942;BME280;3510;43.200;27.920;2023-05-14T04:55:54;101887.53;;;24.18;37.68
6942;BME280;3510;43.200;27.920;2023-05-14T04:58:21;101878.34;;;24.62;36.91
6942;BME280;3510;43.200;27.920;2023-05-14T05:00:49;101882.84;;;24.66;36.64
6942;BME280;3510;43.200;27.920;2023-05-14T05:03:17;101882.03;;;24.48;37.25
6942;BME280;3510;43.200;27.920;2023-05-14T05:05:55;101879.03;;;25.37;35.75
6942;BME280;3510;43.200;27.920;2023-05-14T05:08:22;101882.97;;;25.71;35.58
6942;BME280;3510;43.200;27.920;2023-05-14T05:10:49;101878.91;;;25.55;35.72
6942;BME280;3510;43.200;27.920;2023-05-14T05:13:15;101893.09;;;25.66;35.32
6942;BME280;3510;43.200;27.920;2023-05-14T05:15:42;101885.97;;;25.40;35.57
6942;BME280;3510;43.200;27.920;2023-05-14T05:18:13;101892.91;;;25.82;35.29
6942;BME280;3510;43.200;27.920;2023-05-14T05:20:39;101894.66;;;25.63;35.18
6942;BME280;3510;43.200;27.920;2023-05-14T05:23:06;101885.81;;;26.22;34.37
6942;BME280;3510;43.200;27.920;2023-05-14T05:25:32;101880.88;;;26.05;35.12
6942;BME280;3510;43.200;27.920;2023-05-14T05:27:59;101887.78;;;26.29;34.76
6942;BME280;3510;43.200;27.920;2023-05-14T05:30:25;101881.97;;;25.25;36.49
6942;BME280;3510;43.200;27.920;2023-05-14T05:32:52;101884.16;;;25.16;37.06
6942;BME280;3510;43.200;27.920;2023-05-14T05:35:20;101885.84;;;25.57;36.23
6942;BME280;3510;43.200;27.920;2023-05-14T05:37:46;101885.13;;;25.18;37.38
6942;BME280;3510;43.200;27.920;2023-05-14T05:40:13;101881.59;;;25.37;37.30
6942;BME280;3510;43.200;27.920;2023-05-14T05:42:39;101882.41;;;25.15;37.80
6942;BME280;3510;43.200;27.920;2023-05-14T05:45:06;101877.38;;;25.60;37.11
6942;BME280;3510;43.200;27.920;2023-05-14T05:47:33;101882.97;;;25.71;36.62
6942;BME280;3510;43.200;27.920;2023-05-14T05:50:00;101877.78;;;25.08;38.33
6942;BME280;3510;43.200;27.920;2023-05-14T05:52:31;101887.94;;;25.24;37.85
6942;BME280;3510;43.200;27.920;2023-05-14T05:54:59;101890.56;;;25.68;37.24
6942;BME280;3510;43.200;27.920;2023-05-14T05:57:26;101888.13;;;25.50;37.66
6942;BME280;3510;43.200;27.920;2023-05-14T05:59:53;101890.81;;;24.92;38.89
6942;BME280;3510;43.200;27.920;2023-05-14T06:02:20;101886.28;;;25.47;38.26
6942;BME280;3510;43.200;27.920;2023-05-14T06:04:46;101881.69;;;26.27;36.93
6942;BME280;3510;43.200;27.920;2023-05-14T06:07:13;101884.00;;;25.97;37.66
6942;BME280;3510;43.200;27.920;2023-05-14T06:09:41;101882.34;;;25.34;38.99
6942;BME280;3510;43.200;27.920;2023-05-14T06:12:08;101889.84;;;25.09;39.53
6942;BME280;3510;43.200;27.920;2023-05-14T06:14:36;101895.03;;;25.51;38.80
6942;BME280;3510;43.200;27.920;2023-05-14T06:17:03;101897.34;;;25.87;38.08
6942;BME280;3510;43.200;27.920;2023-05-14T06:19:31;101897.34;;;26.31;37.94
6942;BME280;3510;43.200;27.920;2023-05-14T06:21:57;101898.66;;;26.20;37.61
6942;BME280;3510;43.200;27.920;2023-05-14T06:24:23;101901.78;;;25.89;37.87
6942;BME280;3510;43.200;27.920;2023-05-14T06:26:53;101905.97;;;26.10;38.05
6942;BME280;3510;43.200;27.920;2023-05-14T06:29:20;101902.03;;;26.64;37.39
6942;BME280;3510;43.200;27.920;2023-05-14T06:31:46;101902.97;;;26.44;37.04
6942;BME280;3510;43.200;27.920;2023-05-14T06:34:13;101895.38;;;26.47;37.05
6942;BME280;3510;43.200;27.920;2023-05-14T06:36:39;101892.19;;;26.31;37.22
6942;BME280;3510;43.200;27.920;2023-05-14T06:39:06;101899.47;;;26.42;37.37
6942;BME280;3510;43.200;27.920;2023-05-14T06:41:36;101890.28;;;26.03;37.78
6942;BME280;3510;43.200;27.920;2023-05-14T06:44:05;101886.56;;;26.19;37.78
6942;BME280;3510;43.200;27.920;2023-05-14T06:46:41;101883.44;;;26.28;37.73
6942;BME280;3510;43.200;27.920;2023-05-14T06:49:08;101887.97;;;26.56;37.23
6942;BME280;3510;43.200;27.920;2023-05-14T06:51:35;101910.78;;;26.45;37.54
6942;BME280;3510;43.200;27.920;2023-05-14T06:54:03;101880.78;;;26.97;36.40
6942;BME280;3510;43.200;27.920;2023-05-14T06:56:34;101876.94;;;26.38;37.18
6942;BME280;3510;43.200;27.920;2023-05-14T06:59:01;101912.91;;;26.56;37.63
6942;BME280;3510;43.200;27.920;2023-05-14T07:01:29;101906.63;;;26.97;36.65
6942;BME280;3510;43.200;27.920;2023-05-14T07:04:10;101904.88;;;26.96;36.60
6942;BME280;3510;43.200;27.920;2023-05-14T07:06:45;101884.47;;;25.87;38.40
6942;BME280;3510;43.200;27.920;2023-05-14T07:09:12;101916.50;;;26.59;37.60
6942;BME280;3510;43.200;27.920;2023-05-14T07:11:39;101913.88;;;27.07;36.58
6942;BME280;3510;43.200;27.920;2023-05-14T07:14:06;101909.47;;;27.05;36.79
6942;BME280;3510;43.200;27.920;2023-05-14T07:16:35;101914.88;;;27.11;36.52
6942;BME280;3510;43.200;27.920;2023-05-14T07:19:02;101913.78;;;27.04;36.76
6942;BME280;3510;43.200;27.920;2023-05-14T07:21:29;101928.34;;;26.31;38.16
6942;BME280;3510;43.200;27.920;2023-05-14T07:24:01;101924.63;;;26.94;37.08
6942;BME280;3510;43.200;27.920;2023-05-14T07:26:36;101910.28;;;26.78;37.09
6942;BME280;3510;43.200;27.920;2023-05-14T07:29:03;101926.78;;;27.31;36.60
6942;BME280;3510;43.200;27.920;2023-05-14T07:31:30;101940.59;;;27.57;36.13
6942;BME280;3510;43.200;27.920;2023-05-14T07:33:58;101936.13;;;27.53;35.97
6942;BME280;3510;43.200;27.920;2023-05-14T07:36:24;101944.78;;;27.79;35.66
6942;BME280;3510;43.200;27.920;2023-05-14T07:38:51;101947.94;;;27.70;35.59
6942;BME280;3510;43.200;27.920;2023-05-14T07:41:18;101917.44;;;27.62;35.86
6942;BME280;3510;43.200;27.920;2023-05-14T07:43:45;101933.94;;;27.91;35.35
6942;BME280;3510;43.200;27.920;2023-05-14T07:46:13;101933.66;;;28.37;34.44
6942;BME280;3510;43.200;27.920;2023-05-14T07:48:40;101931.81;;;27.78;35.14
6942;BME280;3510;43.200;27.920;2023-05-14T07:51:09;101909.13;;;27.97;35.41
6942;BME280;3510;43.200;27.920;2023-05-14T07:53:36;101935.53;;;28.43;34.80
6942;BME280;3510;43.200;27.920;2023-05-14T07:56:03;101941.03;;;28.55;34.66
6942;BME280;3510;43.200;27.920;2023-05-14T07:58:30;101948.66;;;28.49;34.89
6942;BME280;3510;43.200;27.920;2023-05-14T08:00:57;101948.94;;;28.30;35.02
6942;BME280;3510;43.200;27.920;2023-05-14T08:03:25;101949.56;;;28.22;34.70
6942;BME280;3510;43.200;27.920;2023-05-14T08:05:52;101922.00;;;28.53;34.40
6942;BME280;3510;43.200;27.920;2023-05-14T08:08:22;101950.97;;;28.40;34.25
6942;BME280;3510;43.200;27.920;2023-05-14T08:10:49;101932.97;;;28.75;33.73
6942;BME280;3510;43.200;27.920;2023-05-14T08:13:16;101948.44;;;28.41;34.45
6942;BME280;3510;43.200;27.920;2023-05-14T08:15:43;101945.59;;;28.94;33.78
6942;BME280;3510;43.200;27.920;2023-05-14T08:18:10;101877.72;;;28.77;32.90
6942;BME280;3510;43.200;27.920;2023-05-14T08:20:39;101955.13;;;29.27;33.07
6942;BME280;3510;43.200;27.920;2023-05-14T08:23:05;101944.50;;;29.17;32.96
6942;BME280;3510;43.200;27.920;2023-05-14T08:25:34;101942.66;;;29.47;32.82
6942;BME280;3510;43.200;27.920;2023-05-14T08:28:01;101945.56;;;29.94;32.25
6942;BME280;3510;43.200;27.920;2023-05-14T08:30:29;101941.19;;;28.91;33.54
6942;BME280;3510;43.200;27.920;2023-05-14T08:32:57;101874.28;;;28.77;33.17
6942;BME280;3510;43.200;27.920;2023-05-14T08:35:24;101939.50;;;29.24;33.13
6942;BME280;3510;43.200;27.920;2023-05-14T08:37:54;101909.19;;;27.73;35.24
6942;BME280;3510;43.200;27.920;2023-05-14T08:40:21;101931.34;;;28.19;34.58
6942;BME280;3510;43.200;27.920;2023-05-14T08:42:50;101922.66;;;28.17;34.33
6942;BME280;3510;43.200;27.920;2023-05-14T08:45:20;101900.00;;;28.10;34.63
6942;BME280;3510;43.200;27.920;2023-05-14T08:47:50;101890.66;;;28.76;33.42
6942;BME280;3510;43.200;27.920;2023-05-14T08:50:18;101922.47;;;29.70;32.59
6942;BME280;3510;43.200;27.920;2023-05-14T08:52:45;101917.97;;;29.62;32.63
6942;BME280;3510;43.200;27.920;2023-05-14T08:55:12;101905.00;;;29.62;32.35
6942;BME280;3510;43.200;27.920;2023-05-14T08:57:40;101915.19;;;28.57;33.94
6942;BME280;3510;43.200;27.920;2023-05-14T09:00:09;101919.19;;;29.77;32.18
6942;BME280;3510;43.200;27.920;2023-05-14T09:02:38;101906.09;;;29.71;32.26
6942;BME280;3510;43.200;27.920;2023-05-14T09:05:06;101921.50;;;29.30;33.10
6942;BME280;3510;43.200;27.920;2023-05-14T09:07:34;101868.13;;;28.73;33.50
6942;BME280;3510;43.200;27.920;2023-05-14T09:10:01;101908.53;;;28.36;35.01
6942;BME280;3510;43.200;27.920;2023-05-14T09:12:29;101919.00;;;28.69;34.32
6942;BME280;3510;43.200;27.920;2023-05-14T09:14:56;101876.66;;;28.09;34.77
6942;BME280;3510;43.200;27.920;2023-05-14T09:17:26;101920.13;;;28.79;34.88
6942;BME280;3510;43.200;27.920;2023-05-14T09:19:55;101925.06;;;29.33;33.40
6942;BME280;3510;43.200;27.920;2023-05-14T09:22:22;101921.13;;;29.49;32.90
6942;BME280;3510;43.200;27.920;2023-05-14T09:25:01;101917.69;;;29.15;33.17
6942;BME280;3510;43.200;27.920;2023-05-14T09:27:29;101919.59;;;28.31;34.96
6942;BME280;3510;43.200;27.920;2023-05-14T09:30:03;101918.72;;;28.90;34.10
6942;BME280;3510;43.200;27.920;2023-05-14T09:32:37;101915.34;;;28.93;34.46
6942;BME280;3510;43.200;27.920;2023-05-14T09:35:13;101915.44;;;28.98;34.61
6942;BME280;3510;43.200;27.920;2023-05-14T09:37:42;101902.88;;;28.80;34.37
6942;BME280;3510;43.200;27.920;2023-05-14T09:40:10;101868.84;;;29.34;33.18
6942;BME280;3510;43.200;27.920;2023-05-14T09:42:51;101922.63;;;28.76;34.29
6942;BME280;3510;43.200;27.920;2023-05-14T09:45:17;101924.00;;;28.95;34.30
6942;BME280;3510;43.200;27.920;2023-05-14T10:03:29;101921.34;;;29.24;32.92
6942;BME280;3510;43.200;27.920;2023-05-14T10:05:59;101868.13;;;28.11;33.29
6942;BME280;3510;43.200;27.920;2023-05-14T10:08:32;101892.00;;;28.33;32.86
6942;BME280;3510;43.200;27.920;2023-05-14T10:11:02;101925.75;;;29.26;31.90
6942;BME280;3510;43.200;27.920;2023-05-14T10:13:36;101861.31;;;29.08;31.29
6942;BME280;3510;43.200;27.920;2023-05-14T10:16:07;101913.78;;;28.68;32.99
6942;BME280;3510;43.200;27.920;2023-05-14T10:18:49;101921.84;;;29.10;33.20
6942;BME280;3510;43.200;27.920;2023-05-14T10:21:19;101916.84;;;29.16;32.62
6942;BME280;3510;43.200;27.920;2023-05-14T10:23:48;101928.22;;;28.90;33.07
6942;BME280;3510;43.200;27.920;2023-05-14T10:26:24;101926.44;;;29.21;33.18
6942;BME280;3510;43.200;27.920;2023-05-14T10:28:53;101925.84;;;29.31;32.66
6942;BME280;3510;43.200;27.920;2023-05-14T10:31:22;101874.28;;;28.45;33.21
6942;BME280;3510;43.200;27.920;2023-05-14T10:33:50;101913.31;;;28.83;34.28
6942;BME280;3510;43.200;27.920;2023-05-14T10:36:19;101907.28;;;28.84;33.60
6942;BME280;3510;43.200;27.920;2023-05-14T10:38:54;101895.50;;;28.95;34.08
6942;BME280;3510;43.200;27.920;2023-05-14T10:41:21;101894.34;;;28.23;35.07
6942;BME280;3510;43.200;27.920;2023-05-14T10:43:49;101893.59;;;28.56;34.88
6942;BME280;3510;43.200;27.920;2023-05-14T10:46:15;101872.03;;;28.29;34.08
6942;BME280;3510;43.200;27.920;2023-05-14T10:48:45;101923.34;;;29.34;32.60
6942;BME280;3510;43.200;27.920;2023-05-14T10:51:14;101871.75;;;28.78;33.64
6942;BME280;3510;43.200;27.920;2023-05-14T10:53:42;101896.94;;;29.15;32.68
6942;BME280;3510;43.200;27.920;2023-05-14T10:56:10;101919.09;;;29.72;31.98
6942;BME280;3510;43.200;27.920;2023-05-14T10:58:39;101914.91;;;29.44;31.70
6942;BME280;3510;43.200;27.920;2023-05-14T11:01:06;101915.34;;;28.93;33.16
6942;BME280;3510;43.200;27.920;2023-05-14T11:03:38;101916.03;;;29.55;31.96
6942;BME280;3510;43.200;27.920;2023-05-14T11:06:06;101898.63;;;28.82;32.55
6942;BME280;3510;43.200;27.920;2023-05-14T11:08:35;101919.63;;;29.59;31.85
6942;BME280;3510;43.200;27.920;2023-05-14T11:11:02;101905.28;;;29.04;32.33
6942;BME280;3510;43.200;27.920;2023-05-14T11:13:29;101915.41;;;28.36;33.47
6942;BME280;3510;43.200;27.920;2023-05-14T11:15:57;101885.31;;;28.69;33.08
6942;BME280;3510;43.200;27.920;2023-05-14T11:18:25;101902.97;;;28.22;33.33
6942;BME280;3510;43.200;27.920;2023-05-14T11:20:53;101873.31;;;28.13;34.25
6942;BME280;3510;43.200;27.920;2023-05-14T11:23:21;101901.72;;;28.38;33.68
6942;BME280;3510;43.200;27.920;2023-05-14T11:25:51;101880.16;;;28.39;32.92
6942;BME280;3510;43.200;27.920;2023-05-14T11:28:20;101896.06;;;28.23;33.30
6942;BME280;3510;43.200;27.920;2023-05-14T11:30:47;101893.88;;;28.37;32.26
6942;BME280;3510;43.200;27.920;2023-05-14T11:33:14;101893.59;;;27.97;33.09
6942;BME280;3510;43.200;27.920;2023-05-14T11:35:42;101846.97;;;27.96;33.24
6942;BME280;3510;43.200;27.920;2023-05-14T11:38:14;101871.91;;;27.94;33.59
6942;BME280;3510;43.200;27.920;2023-05-14T11:40:42;101845.75;;;27.31;34.64
6942;BME280;3510;43.200;27.920;2023-05-14T11:43:14;101865.03;;;27.67;35.18
6942;BME280;3510;43.200;27.920;2023-05-14T11:45:41;101842.28;;;27.57;35.43
6942;BME280;3510;43.200;27.920;2023-05-14T11:48:11;101830.91;;;28.08;34.57
6942;BME280;3510;43.200;27.920;2023-05-14T11:50:44;101853.88;;;28.56;33.63
6942;BME280;3510;43.200;27.920;2023-05-14T11:53:10;101758.41;;;28.38;32.66
6942;BME280;3510;43.200;27.920;2023-05-14T11:55:41;101763.78;;;28.45;33.53
6942;BME280;3510;43.200;27.920;2023-05-14T11:58:08;101832.88;;;29.13;33.33
6942;BME280;3510;43.200;27.920;2023-05-14T12:00:36;101739.63;;;28.46;32.20
6942;BME280;3510;43.200;27.920;2023-05-14T12:03:03;101772.09;;;28.35;32.19
6942;BME280;3510;43.200;27.920;2023-05-14T12:05:30;101804.50;;;28.51;32.19
6942;BME280;3510;43.200;27.920;2023-05-14T12:07:57;101775.66;;;28.07;32.59
6942;BME280;3510;43.200;27.920;2023-05-14T12:10:28;101805.56;;;27.97;33.82
6942;BME280;3510;43.200;27.920;2023-05-14T12:12:54;101796.19;;;28.01;33.91
6942;BME280;3510;43.200;27.920;2023-05-14T12:15:21;101744.41;;;28.33;32.71
6942;BME280;3510;43.200;27.920;2023-05-14T12:17:50;101800.13;;;28.82;32.49
6942;BME280;3510;43.200;27.920;2023-05-14T12:20:17;101785.34;;;28.44;32.40
6942;BME280;3510;43.200;27.920;2023-05-14T12:22:44;101798.41;;;28.49;32.84
6942;BME280;3510;43.200;27.920;2023-05-14T12:25:12;101793.06;;;28.43;33.13
6942;BME280;3510;43.200;27.920;2023-05-14T12:27:39;101797.88;;;28.62;33.24
6942;BME280;3510;43.200;27.920;2023-05-14T12:30:06;101789.84;;;28.52;32.66
6942;BME280;3510;43.200;27.920;2023-05-14T12:32:34;101773.81;;;28.66;32.30
6942;BME280;3510;43.200;27.920;2023-05-14T12:35:03;101708.53;;;27.83;32.75
6942;BME280;3510;43.200;27.920;2023-05-14T12:37:30;101788.19;;;28.23;32.60
6942;BME280;3510;43.200;27.920;2023-05-14T12:39:56;101712.88;;;28.16;32.64
6942;BME280;3510;43.200;27.920;2023-05-14T12:42:23;101799.25;;;28.81;32.46
6942;BME280;3510;43.200;27.920;2023-05-14T12:44:51;101796.38;;;28.70;31.90
6942;BME280;3510;43.200;27.920;2023-05-14T12:47:18;101796.03;;;28.58;31.77
6942;BME280;3510;43.200;27.920;2023-05-14T12:49:45;101790.25;;;29.02;31.31
6942;BME280;3510;43.200;27.920;2023-05-14T12:52:13;101787.00;;;29.10;31.00
6942;BME280;3510;43.200;27.920;2023-05-14T12:54:40;101787.75;;;29.05;31.53
6942;BME280;3510;43.200;27.920;2023-05-14T12:57:08;101793.16;;;28.81;31.57
6942;BME280;3510;43.200;27.920;2023-05-14T12:59:34;101761.84;;;28.72;31.50
6942;BME280;3510;43.200;27.920;2023-05-14T13:02:01;101783.47;;;28.74;32.30
6942;BME280;3510;43.200;27.920;2023-05-14T13:04:28;101765.31;;;28.72;31.86
6942;BME280;3510;43.200;27.920;2023-05-14T13:06:55;101768.31;;;29.61;30.61
6942;BME280;3510;43.200;27.920;2023-05-14T13:09:23;101785.84;;;29.72;30.13
6942;BME280;3510;43.200;27.920;2023-05-14T13:11:52;101795.25;;;28.95;31.94
6942;BME280;3510;43.200;27.920;2023-05-14T13:14:18;101764.06;;;29.65;30.69
6942;BME280;3510;43.200;27.920;2023-05-14T13:16:45;101801.19;;;30.47;29.73
6942;BME280;3510;43.200;27.920;2023-05-14T13:19:12;101792.31;;;29.53;31.16
6942;BME280;3510;43.200;27.920;2023-05-14T13:21:38;101770.75;;;29.96;30.25
6942;BME280;3510;43.200;27.920;2023-05-14T13:24:05;101714.19;;;29.80;30.32